sensor_id;sensor_type;location;lat;lon;timestamp;P1;durP1;ratioP1;P2;durP2;ratioP2
6832;SDS011;3454;42.654;23.378;2022-07-29T00:01:21;8.00;;;7.18;;
6832;SDS011;3454;42.654;23.378;2022-07-29T00:03:46;8.13;;;6.82;;
6832;SDS011;3454;42.654;23.378;2022-07-29T00:06:13;9.60;;;6.95;;
6832;SDS011;3454;42.654;23.378;2022-07-29T00:08:39;9.85;;;7.00;;
6832;SDS011;3454;42.654;23.378;2022-07-29T00:11:04;11.82;;;8.20;;
6832;SDS011;3454;42.654;23.378;2022-07-29T00:13:30;13.40;;;6.72;;
6832;SDS011;3454;42.654;23.378;2022-07-29T00:15:55;9.00;;;7.38;;
6832;SDS011;3454;42.654;23.378;2022-07-29T00:18:20;9.77;;;7.07;;
6832;SDS011;3454;42.654;23.378;2022-07-29T00:20:46;8.02;;;7.20;;
6832;SDS011;3454;42.654;23.378;2022-07-29T00:23:11;8.00;;;7.22;;
6832;SDS011;3454;42.654;23.378;2022-07-29T00:25:37;8.02;;;7.32;;
6832;SDS011;3454;42.654;23.378;2022-07-29T00:28:02;8.90;;;7.15;;
6832;SDS011;3454;42.654;23.378;2022-07-29T00:30:28;7.93;;;7.07;;
6832;SDS011;3454;42.654;23.378;2022-07-29T00:32:53;10.13;;;7.40;;
6832;SDS011;3454;42.654;23.378;2022-07-29T00:35:18;7.65;;;6.95;;
6832;SDS011;3454;42.654;23.378;2022-07-29T00:38:03;7.78;;;6.88;;
6832;SDS011;3454;42.654;23.378;2022-07-29T00:40:28;8.25;;;7.53;;
6832;SDS011;3454;42.654;23.378;2022-07-29T00:42:53;9.07;;;8.10;;
6832;SDS011;3454;42.654;23.378;2022-07-29T00:45:19;14.60;;;7.82;;
6832;SDS011;3454;42.654;23.378;2022-07-29T00:47:44;7.80;;;7.10;;
6832;SDS011;3454;42.654;23.378;2022-07-29T00:50:11;8.77;;;7.80;;
6832;SDS011;3454;42.654;23.378;2022-07-29T00:52:38;7.82;;;7.03;;
6832;SDS011;3454;42.654;23.378;2022-07-29T00:55:06;9.38;;;8.00;;
6832;SDS011;3454;42.654;23.378;2022-07-29T00:57:34;13.13;;;8.05;;
6832;SDS011;3454;42.654;23.378;2022-07-29T01:00:00;8.82;;;7.88;;
6832;SDS011;3454;42.654;23.378;2022-07-29T01:02:25;9.63;;;7.53;;
6832;SDS011;3454;42.654;23.378;2022-07-29T01:04:51;9.02;;;7.63;;
6832;SDS011;3454;42.654;23.378;2022-07-29T01:07:17;9.45;;;7.32;;
6832;SDS011;3454;42.654;23.378;2022-07-29T01:09:50;9.80;;;7.63;;
6832;SDS011;3454;42.654;23.378;2022-07-29T01:12:25;8.00;;;6.65;;
6832;SDS011;3454;42.654;23.378;2022-07-29T01:14:53;8.95;;;8.15;;
6832;SDS011;3454;42.654;23.378;2022-07-29T01:17:22;7.63;;;6.90;;
6832;SDS011;3454;42.654;23.378;2022-07-29T01:27:58;8.38;;;7.57;;
6832;SDS011;3454;42.654;23.378;2022-07-29T01:30:35;10.52;;;7.70;;
6832;SDS011;3454;42.654;23.378;2022-07-29T01:33:03;9.95;;;7.88;;
6832;SDS011;3454;42.654;23.378;2022-07-29T01:35:36;8.40;;;7.55;;
6832;SDS011;3454;42.654;23.378;2022-07-29T01:40:34;9.65;;;8.63;;
6832;SDS011;3454;42.654;23.378;2022-07-29T01:43:07;10.60;;;9.48;;
6832;SDS011;3454;42.654;23.378;2022-07-29T01:45:40;10.85;;;9.70;;
6832;SDS011;3454;42.654;23.378;2022-07-29T01:48:23;10.63;;;9.52;;
6832;SDS011;3454;42.654;23.378;2022-07-29T01:51:18;11.13;;;9.95;;
6832;SDS011;3454;42.654;23.378;2022-07-29T01:56:48;11.70;;;8.38;;
6832;SDS011;3454;42.654;23.378;2022-07-29T01:59:16;11.88;;;8.82;;
6832;SDS011;3454;42.654;23.378;2022-07-29T02:01:43;12.32;;;9.23;;
6832;SDS011;3454;42.654;23.378;2022-07-29T02:04:12;12.55;;;8.70;;
6832;SDS011;3454;42.654;23.378;2022-07-29T02:06:40;10.23;;;9.13;;
6832;SDS011;3454;42.654;23.378;2022-07-29T02:09:07;11.40;;;8.00;;
6832;SDS011;3454;42.654;23.378;2022-07-29T02:11:35;8.75;;;7.43;;
6832;SDS011;3454;42.654;23.378;2022-07-29T02:14:03;9.13;;;6.82;;
6832;SDS011;3454;42.654;23.378;2022-07-29T02:16:30;7.63;;;6.75;;
6832;SDS011;3454;42.654;23.378;2022-07-29T02:18:57;12.25;;;7.45;;
6832;SDS011;3454;42.654;23.378;2022-07-29T02:21:25;9.73;;;6.45;;
6832;SDS011;3454;42.654;23.378;2022-07-29T02:23:53;8.93;;;6.78;;
6832;SDS011;3454;42.654;23.378;2022-07-29T02:26:21;9.15;;;6.60;;
6832;SDS011;3454;42.654;23.378;2022-07-29T02:28:49;6.75;;;6.15;;
6832;SDS011;3454;42.654;23.378;2022-07-29T02:31:26;8.32;;;7.10;;
6832;SDS011;3454;42.654;23.378;2022-07-29T02:33:53;8.00;;;6.95;;
6832;SDS011;3454;42.654;23.378;2022-07-29T02:36:21;10.88;;;7.00;;
6832;SDS011;3454;42.654;23.378;2022-07-29T02:38:48;9.00;;;7.00;;
6832;SDS011;3454;42.654;23.378;2022-07-29T02:41:16;10.00;;;7.00;;
6832;SDS011;3454;42.654;23.378;2022-07-29T02:43:45;10.18;;;7.10;;
6832;SDS011;3454;42.654;23.378;2022-07-29T02:46:14;9.35;;;6.47;;
6832;SDS011;3454;42.654;23.378;2022-07-29T02:48:55;10.77;;;6.28;;
6832;SDS011;3454;42.654;23.378;2022-07-29T02:51:29;9.50;;;6.72;;
6832;SDS011;3454;42.654;23.378;2022-07-29T02:54:01;9.32;;;6.50;;
6832;SDS011;3454;42.654;23.378;2022-07-29T02:56:31;8.88;;;6.72;;
6832;SDS011;3454;42.654;23.378;2022-07-29T02:59:03;10.07;;;6.82;;
6832;SDS011;3454;42.654;23.378;2022-07-29T03:01:33;9.93;;;6.53;;
6832;SDS011;3454;42.654;23.378;2022-07-29T03:04:01;9.13;;;6.97;;
6832;SDS011;3454;42.654;23.378;2022-07-29T03:06:29;7.70;;;6.22;;
6832;SDS011;3454;42.654;23.378;2022-07-29T03:08:57;8.88;;;7.22;;
6832;SDS011;3454;42.654;23.378;2022-07-29T03:11:25;9.63;;;7.15;;
6832;SDS011;3454;42.654;23.378;2022-07-29T03:13:50;7.47;;;6.78;;
6832;SDS011;3454;42.654;23.378;2022-07-29T03:16:18;11.13;;;6.93;;
6832;SDS011;3454;42.654;23.378;2022-07-29T03:18:44;9.18;;;7.15;;
6832;SDS011;3454;42.654;23.378;2022-07-29T03:21:09;10.32;;;6.40;;
6832;SDS011;3454;42.654;23.378;2022-07-29T03:23:35;8.90;;;7.65;;
6832;SDS011;3454;42.654;23.378;2022-07-29T03:26:00;13.75;;;8.20;;
6832;SDS011;3454;42.654;23.378;2022-07-29T03:28:26;11.95;;;8.65;;
6832;SDS011;3454;42.654;23.378;2022-07-29T03:30:52;10.43;;;8.32;;
6832;SDS011;3454;42.654;23.378;2022-07-29T03:33:18;10.77;;;9.68;;
6832;SDS011;3454;42.654;23.378;2022-07-29T03:35:44;12.25;;;9.68;;
6832;SDS011;3454;42.654;23.378;2022-07-29T03:38:10;12.98;;;10.32;;
6832;SDS011;3454;42.654;23.378;2022-07-29T03:40:40;14.30;;;10.55;;
6832;SDS011;3454;42.654;23.378;2022-07-29T03:43:11;13.63;;;11.50;;
6832;SDS011;3454;42.654;23.378;2022-07-29T03:45:41;15.35;;;12.30;;
6832;SDS011;3454;42.654;23.378;2022-07-29T03:48:10;12.40;;;11.10;;
6832;SDS011;3454;42.654;23.378;2022-07-29T03:50:40;13.05;;;10.63;;
6832;SDS011;3454;42.654;23.378;2022-07-29T03:53:05;13.27;;;10.73;;
6832;SDS011;3454;42.654;23.378;2022-07-29T03:55:32;13.13;;;11.35;;
6832;SDS011;3454;42.654;23.378;2022-07-29T03:58:02;15.55;;;10.82;;
6832;SDS011;3454;42.654;23.378;2022-07-29T04:00:29;10.32;;;9.30;;
6832;SDS011;3454;42.654;23.378;2022-07-29T04:02:56;12.55;;;11.25;;
6832;SDS011;3454;42.654;23.378;2022-07-29T04:05:22;11.85;;;9.57;;
6832;SDS011;3454;42.654;23.378;2022-07-29T04:07:47;12.23;;;10.27;;
6832;SDS011;3454;42.654;23.378;2022-07-29T04:10:13;11.70;;;9.43;;
6832;SDS011;3454;42.654;23.378;2022-07-29T04:12:44;11.80;;;9.30;;
6832;SDS011;3454;42.654;23.378;2022-07-29T04:15:09;16.50;;;9.55;;
6832;SDS011;3454;42.654;23.378;2022-07-29T04:17:36;15.88;;;9.95;;
6832;SDS011;3454;42.654;23.378;2022-07-29T04:20:01;12.52;;;8.18;;
6832;SDS011;3454;42.654;23.378;2022-07-29T04:22:28;11.77;;;8.48;;
6832;SDS011;3454;42.654;23.378;2022-07-29T04:24:53;9.32;;;8.32;;
6832;SDS011;3454;42.654;23.378;2022-07-29T04:27:19;10.32;;;8.13;;
6832;SDS011;3454;42.654;23.378;2022-07-29T04:29:44;11.27;;;8.07;;
6832;SDS011;3454;42.654;23.378;2022-07-29T04:32:10;8.93;;;7.07;;
6832;SDS011;3454;42.654;23.378;2022-07-29T04:34:35;11.52;;;6.68;;
6832;SDS011;3454;42.654;23.378;2022-07-29T04:37:00;9.02;;;7.20;;
6832;SDS011;3454;42.654;23.378;2022-07-29T04:39:26;12.55;;;7.07;;
6832;SDS011;3454;42.654;23.378;2022-07-29T04:41:51;10.02;;;6.25;;
6832;SDS011;3454;42.654;23.378;2022-07-29T04:44:17;7.45;;;6.60;;
6832;SDS011;3454;42.654;23.378;2022-07-29T04:46:42;16.40;;;12.50;;
6832;SDS011;3454;42.654;23.378;2022-07-29T04:49:08;15.80;;;14.40;;
6832;SDS011;3454;42.654;23.378;2022-07-29T04:51:34;10.73;;;9.77;;
6832;SDS011;3454;42.654;23.378;2022-07-29T04:53:59;6.97;;;6.28;;
6832;SDS011;3454;42.654;23.378;2022-07-29T04:56:25;9.48;;;6.60;;
6832;SDS011;3454;42.654;23.378;2022-07-29T04:58:51;6.38;;;5.88;;
6832;SDS011;3454;42.654;23.378;2022-07-29T05:01:16;8.90;;;6.75;;
6832;SDS011;3454;42.654;23.378;2022-07-29T05:03:42;7.70;;;5.72;;
6832;SDS011;3454;42.654;23.378;2022-07-29T05:06:07;8.45;;;6.55;;
6832;SDS011;3454;42.654;23.378;2022-07-29T05:08:33;8.73;;;6.35;;
6832;SDS011;3454;42.654;23.378;2022-07-29T05:10:58;11.07;;;6.50;;
6832;SDS011;3454;42.654;23.378;2022-07-29T05:13:24;9.57;;;6.85;;
6832;SDS011;3454;42.654;23.378;2022-07-29T05:15:49;7.50;;;6.55;;
6832;SDS011;3454;42.654;23.378;2022-07-29T05:18:15;8.05;;;6.32;;
6832;SDS011;3454;42.654;23.378;2022-07-29T05:20:40;10.18;;;6.47;;
6832;SDS011;3454;42.654;23.378;2022-07-29T05:23:06;7.82;;;7.03;;
6832;SDS011;3454;42.654;23.378;2022-07-29T05:25:31;7.82;;;6.60;;
6832;SDS011;3454;42.654;23.378;2022-07-29T05:27:57;7.82;;;6.10;;
6832;SDS011;3454;42.654;23.378;2022-07-29T05:30:23;11.77;;;7.00;;
6832;SDS011;3454;42.654;23.378;2022-07-29T05:32:48;8.95;;;6.20;;
6832;SDS011;3454;42.654;23.378;2022-07-29T05:35:14;7.88;;;6.45;;
6832;SDS011;3454;42.654;23.378;2022-07-29T05:37:40;7.97;;;6.55;;
6832;SDS011;3454;42.654;23.378;2022-07-29T05:40:06;9.05;;;6.60;;
6832;SDS011;3454;42.654;23.378;2022-07-29T05:42:33;9.75;;;6.03;;
6832;SDS011;3454;42.654;23.378;2022-07-29T05:44:59;8.48;;;6.88;;
6832;SDS011;3454;42.654;23.378;2022-07-29T05:47:25;7.70;;;6.90;;
6832;SDS011;3454;42.654;23.378;2022-07-29T05:49:50;8.07;;;7.07;;
6832;SDS011;3454;42.654;23.378;2022-07-29T05:52:16;6.88;;;6.10;;
6832;SDS011;3454;42.654;23.378;2022-07-29T05:54:42;9.00;;;6.72;;
6832;SDS011;3454;42.654;23.378;2022-07-29T05:57:07;7.40;;;6.70;;
6832;SDS011;3454;42.654;23.378;2022-07-29T05:59:36;11.52;;;6.43;;
6832;SDS011;3454;42.654;23.378;2022-07-29T06:02:02;7.82;;;5.68;;
6832;SDS011;3454;42.654;23.378;2022-07-29T06:04:30;12.32;;;7.15;;
6832;SDS011;3454;42.654;23.378;2022-07-29T06:06:56;6.40;;;5.57;;
6832;SDS011;3454;42.654;23.378;2022-07-29T06:09:21;7.82;;;6.38;;
6832;SDS011;3454;42.654;23.378;2022-07-29T06:11:47;6.80;;;6.13;;
6832;SDS011;3454;42.654;23.378;2022-07-29T06:14:13;8.48;;;6.03;;
6832;SDS011;3454;42.654;23.378;2022-07-29T06:16:39;6.63;;;5.82;;
6832;SDS011;3454;42.654;23.378;2022-07-29T06:19:04;7.75;;;5.95;;
6832;SDS011;3454;42.654;23.378;2022-07-29T06:21:30;6.15;;;5.40;;
6832;SDS011;3454;42.654;23.378;2022-07-29T06:23:55;6.65;;;6.00;;
6832;SDS011;3454;42.654;23.378;2022-07-29T06:26:20;8.65;;;5.38;;
6832;SDS011;3454;42.654;23.378;2022-07-29T06:28:46;6.30;;;5.70;;
6832;SDS011;3454;42.654;23.378;2022-07-29T06:31:11;7.53;;;4.88;;
6832;SDS011;3454;42.654;23.378;2022-07-29T06:33:36;5.70;;;5.20;;
6832;SDS011;3454;42.654;23.378;2022-07-29T06:36:03;6.30;;;5.70;;
6832;SDS011;3454;42.654;23.378;2022-07-29T06:38:30;10.10;;;6.80;;
6832;SDS011;3454;42.654;23.378;2022-07-29T06:40:56;8.68;;;6.82;;
6832;SDS011;3454;42.654;23.378;2022-07-29T06:43:33;7.47;;;6.72;;
6832;SDS011;3454;42.654;23.378;2022-07-29T06:46:06;10.02;;;6.35;;
6832;SDS011;3454;42.654;23.378;2022-07-29T06:48:34;7.03;;;6.18;;
6832;SDS011;3454;42.654;23.378;2022-07-29T06:51:01;6.80;;;5.57;;
6832;SDS011;3454;42.654;23.378;2022-07-29T06:53:27;12.00;;;7.03;;
6832;SDS011;3454;42.654;23.378;2022-07-29T06:55:53;6.20;;;5.50;;
6832;SDS011;3454;42.654;23.378;2022-07-29T06:58:19;6.63;;;5.90;;
6832;SDS011;3454;42.654;23.378;2022-07-29T07:00:46;12.77;;;6.68;;
6832;SDS011;3454;42.654;23.378;2022-07-29T07:03:13;7.28;;;5.97;;
6832;SDS011;3454;42.654;23.378;2022-07-29T07:05:38;6.70;;;4.63;;
6832;SDS011;3454;42.654;23.378;2022-07-29T07:08:04;6.68;;;5.90;;
6832;SDS011;3454;42.654;23.378;2022-07-29T07:10:30;6.18;;;5.30;;
6832;SDS011;3454;42.654;23.378;2022-07-29T07:12:56;7.82;;;4.82;;
6832;SDS011;3454;42.654;23.378;2022-07-29T07:15:21;8.00;;;5.05;;
6832;SDS011;3454;42.654;23.378;2022-07-29T07:17:49;6.90;;;5.47;;
6832;SDS011;3454;42.654;23.378;2022-07-29T07:20:18;6.88;;;5.15;;
6832;SDS011;3454;42.654;23.378;2022-07-29T07:22:43;5.20;;;4.78;;
6832;SDS011;3454;42.654;23.378;2022-07-29T07:25:09;5.40;;;4.72;;
6832;SDS011;3454;42.654;23.378;2022-07-29T07:27:35;6.65;;;4.75;;
6832;SDS011;3454;42.654;23.378;2022-07-29T07:30:02;8.98;;;6.38;;
6832;SDS011;3454;42.654;23.378;2022-07-29T07:32:30;11.18;;;7.95;;
6832;SDS011;3454;42.654;23.378;2022-07-29T07:34:56;6.32;;;4.72;;
6832;SDS011;3454;42.654;23.378;2022-07-29T07:37:21;11.32;;;9.13;;
6832;SDS011;3454;42.654;23.378;2022-07-29T07:39:47;9.55;;;7.15;;
6832;SDS011;3454;42.654;23.378;2022-07-29T07:42:12;5.45;;;4.95;;
6832;SDS011;3454;42.654;23.378;2022-07-29T07:44:38;5.88;;;4.78;;
6832;SDS011;3454;42.654;23.378;2022-07-29T07:47:05;5.85;;;5.00;;
6832;SDS011;3454;42.654;23.378;2022-07-29T07:49:30;5.22;;;4.00;;
6832;SDS011;3454;42.654;23.378;2022-07-29T07:51:56;5.28;;;4.05;;
6832;SDS011;3454;42.654;23.378;2022-07-29T07:54:21;4.90;;;4.13;;
6832;SDS011;3454;42.654;23.378;2022-07-29T07:56:47;5.68;;;3.55;;
6832;SDS011;3454;42.654;23.378;2022-07-29T07:59:16;6.03;;;3.88;;
6832;SDS011;3454;42.654;23.378;2022-07-29T08:01:41;4.97;;;3.80;;
6832;SDS011;3454;42.654;23.378;2022-07-29T08:04:07;3.70;;;3.38;;
6832;SDS011;3454;42.654;23.378;2022-07-29T08:06:33;4.10;;;3.50;;
6832;SDS011;3454;42.654;23.378;2022-07-29T08:09:00;7.53;;;3.95;;
6832;SDS011;3454;42.654;23.378;2022-07-29T08:11:25;6.15;;;4.00;;
6832;SDS011;3454;42.654;23.378;2022-07-29T08:13:51;5.45;;;4.07;;
6832;SDS011;3454;42.654;23.378;2022-07-29T08:16:17;4.50;;;3.72;;
6832;SDS011;3454;42.654;23.378;2022-07-29T08:18:43;4.45;;;3.63;;
6832;SDS011;3454;42.654;23.378;2022-07-29T08:21:11;6.30;;;3.90;;
6832;SDS011;3454;42.654;23.378;2022-07-29T08:23:37;4.25;;;3.45;;
6832;SDS011;3454;42.654;23.378;2022-07-29T08:26:10;5.38;;;3.58;;
6832;SDS011;3454;42.654;23.378;2022-07-29T08:28:37;3.60;;;3.15;;
6832;SDS011;3454;42.654;23.378;2022-07-29T08:31:03;3.35;;;3.05;;
6832;SDS011;3454;42.654;23.378;2022-07-29T08:33:29;4.18;;;3.33;;
6832;SDS011;3454;42.654;23.378;2022-07-29T08:35:54;3.83;;;2.95;;
6832;SDS011;3454;42.654;23.378;2022-07-29T08:38:19;4.43;;;3.20;;
6832;SDS011;3454;42.654;23.378;2022-07-29T08:40:45;4.60;;;3.03;;
6832;SDS011;3454;42.654;23.378;2022-07-29T08:43:11;5.47;;;2.92;;
6832;SDS011;3454;42.654;23.378;2022-07-29T08:45:47;4.05;;;3.08;;
6832;SDS011;3454;42.654;23.378;2022-07-29T08:48:15;5.43;;;2.50;;
6832;SDS011;3454;42.654;23.378;2022-07-29T08:50:42;4.40;;;2.83;;
6832;SDS011;3454;42.654;23.378;2022-07-29T08:53:12;6.35;;;3.42;;
6832;SDS011;3454;42.654;23.378;2022-07-29T08:55:42;7.15;;;3.05;;
6832;SDS011;3454;42.654;23.378;2022-07-29T08:58:09;5.07;;;3.10;;
6832;SDS011;3454;42.654;23.378;2022-07-29T09:00:36;8.00;;;2.90;;
6832;SDS011;3454;42.654;23.378;2022-07-29T09:03:05;3.22;;;2.70;;
6832;SDS011;3454;42.654;23.378;2022-07-29T09:05:32;4.43;;;2.70;;
6832;SDS011;3454;42.654;23.378;2022-07-29T09:07:58;4.80;;;2.97;;
6832;SDS011;3454;42.654;23.378;2022-07-29T09:10:24;3.35;;;2.88;;
6832;SDS011;3454;42.654;23.378;2022-07-29T09:12:50;4.07;;;3.17;;
6832;SDS011;3454;42.654;23.378;2022-07-29T09:15:17;3.17;;;2.88;;
6832;SDS011;3454;42.654;23.378;2022-07-29T09:17:49;3.95;;;3.30;;
6832;SDS011;3454;42.654;23.378;2022-07-29T09:20:16;5.78;;;3.63;;
6832;SDS011;3454;42.654;23.378;2022-07-29T09:22:43;4.63;;;3.67;;
6832;SDS011;3454;42.654;23.378;2022-07-29T09:25:11;4.28;;;3.22;;
6832;SDS011;3454;42.654;23.378;2022-07-29T09:27:36;4.40;;;3.15;;
6832;SDS011;3454;42.654;23.378;2022-07-29T09:30:06;9.38;;;3.58;;
6832;SDS011;3454;42.654;23.378;2022-07-29T09:32:53;3.60;;;3.30;;
6832;SDS011;3454;42.654;23.378;2022-07-29T09:35:27;5.75;;;3.38;;
6832;SDS011;3454;42.654;23.378;2022-07-29T09:37:53;4.28;;;3.85;;
6832;SDS011;3454;42.654;23.378;2022-07-29T09:42:47;6.65;;;4.03;;
6832;SDS011;3454;42.654;23.378;2022-07-29T09:45:26;5.20;;;3.50;;
6832;SDS011;3454;42.654;23.378;2022-07-29T09:47:53;4.45;;;3.75;;
6832;SDS011;3454;42.654;23.378;2022-07-29T09:50:20;7.03;;;3.35;;
6832;SDS011;3454;42.654;23.378;2022-07-29T09:52:52;6.03;;;3.38;;
6832;SDS011;3454;42.654;23.378;2022-07-29T09:55:18;3.47;;;3.17;;
6832;SDS011;3454;42.654;23.378;2022-07-29T09:57:45;3.83;;;3.47;;
6832;SDS011;3454;42.654;23.378;2022-07-29T10:02:39;4.53;;;3.78;;
6832;SDS011;3454;42.654;23.378;2022-07-29T10:05:16;4.03;;;3.60;;
6832;SDS011;3454;42.654;23.378;2022-07-29T10:07:54;3.17;;;2.88;;
6832;SDS011;3454;42.654;23.378;2022-07-29T10:10:22;3.83;;;3.28;;
6832;SDS011;3454;42.654;23.378;2022-07-29T10:13:00;5.22;;;3.13;;
6832;SDS011;3454;42.654;23.378;2022-07-29T10:15:29;6.80;;;3.47;;
6832;SDS011;3454;42.654;23.378;2022-07-29T10:17:57;3.83;;;3.40;;
6832;SDS011;3454;42.654;23.378;2022-07-29T10:20:24;5.93;;;3.70;;
6832;SDS011;3454;42.654;23.378;2022-07-29T10:22:51;6.82;;;3.80;;
6832;SDS011;3454;42.654;23.378;2022-07-29T10:25:17;4.97;;;3.55;;
6832;SDS011;3454;42.654;23.378;2022-07-29T10:27:44;5.90;;;4.90;;
6832;SDS011;3454;42.654;23.378;2022-07-29T10:30:11;5.05;;;3.72;;
6832;SDS011;3454;42.654;23.378;2022-07-29T10:35:34;3.65;;;3.45;;
6832;SDS011;3454;42.654;23.378;2022-07-29T10:40:53;4.25;;;3.70;;
6832;SDS011;3454;42.654;23.378;2022-07-29T10:43:44;5.07;;;3.38;;
6832;SDS011;3454;42.654;23.378;2022-07-29T10:46:12;3.22;;;3.03;;
6832;SDS011;3454;42.654;23.378;2022-07-29T11:07:31;3.80;;;3.45;;
6832;SDS011;3454;42.654;23.378;2022-07-29T11:15:11;5.38;;;3.42;;
6832;SDS011;3454;42.654;23.378;2022-07-29T11:23:31;3.80;;;3.50;;
6832;SDS011;3454;42.654;23.378;2022-07-29T11:28:36;4.50;;;3.78;;
6832;SDS011;3454;42.654;23.378;2022-07-29T11:34:25;3.83;;;3.53;;
6832;SDS011;3454;42.654;23.378;2022-07-29T11:39:32;5.25;;;4.13;;
6832;SDS011;3454;42.654;23.378;2022-07-29T11:45:31;4.20;;;3.10;;
6832;SDS011;3454;42.654;23.378;2022-07-29T11:50:17;4.85;;;4.00;;
6832;SDS011;3454;42.654;23.378;2022-07-29T11:52:52;3.95;;;3.40;;
6832;SDS011;3454;42.654;23.378;2022-07-29T11:55:19;4.25;;;3.60;;
6832;SDS011;3454;42.654;23.378;2022-07-29T11:57:50;7.65;;;4.68;;
6832;SDS011;3454;42.654;23.378;2022-07-29T12:01:00;3.67;;;3.38;;
6832;SDS011;3454;42.654;23.378;2022-07-29T12:03:08;6.93;;;3.92;;
6832;SDS011;3454;42.654;23.378;2022-07-29T12:05:35;4.95;;;3.50;;
6832;SDS011;3454;42.654;23.378;2022-07-29T12:08:13;4.05;;;3.65;;
6832;SDS011;3454;42.654;23.378;2022-07-29T12:10:45;3.75;;;3.45;;
6832;SDS011;3454;42.654;23.378;2022-07-29T12:13:12;4.30;;;3.90;;
6832;SDS011;3454;42.654;23.378;2022-07-29T12:15:40;5.40;;;4.00;;
6832;SDS011;3454;42.654;23.378;2022-07-29T12:18:16;5.07;;;4.00;;
6832;SDS011;3454;42.654;23.378;2022-07-29T12:20:43;4.47;;;4.18;;
6832;SDS011;3454;42.654;23.378;2022-07-29T12:23:09;5.55;;;3.85;;
6832;SDS011;3454;42.654;23.378;2022-07-29T12:25:37;6.25;;;4.03;;
6832;SDS011;3454;42.654;23.378;2022-07-29T12:28:05;5.93;;;4.72;;
6832;SDS011;3454;42.654;23.378;2022-07-29T12:30:43;4.57;;;4.13;;
6832;SDS011;3454;42.654;23.378;2022-07-29T12:35:49;5.30;;;4.80;;
6832;SDS011;3454;42.654;23.378;2022-07-29T12:38:17;5.57;;;4.18;;
6832;SDS011;3454;42.654;23.378;2022-07-29T12:40:43;6.05;;;4.40;;
6832;SDS011;3454;42.654;23.378;2022-07-29T12:43:19;5.15;;;4.75;;
6832;SDS011;3454;42.654;23.378;2022-07-29T12:45:55;5.40;;;4.90;;
6832;SDS011;3454;42.654;23.378;2022-07-29T12:51:00;5.05;;;4.65;;
6832;SDS011;3454;42.654;23.378;2022-07-29T12:53:27;6.00;;;4.22;;
6832;SDS011;3454;42.654;23.378;2022-07-29T12:55:54;6.57;;;4.47;;
6832;SDS011;3454;42.654;23.378;2022-07-29T13:01:35;6.13;;;5.53;;
6832;SDS011;3454;42.654;23.378;2022-07-29T13:06:28;5.35;;;4.95;;
6832;SDS011;3454;42.654;23.378;2022-07-29T13:11:51;7.93;;;4.15;;
6832;SDS011;3454;42.654;23.378;2022-07-29T13:14:30;5.00;;;3.90;;
6832;SDS011;3454;42.654;23.378;2022-07-29T13:17:13;5.25;;;4.80;;
6832;SDS011;3454;42.654;23.378;2022-07-29T13:19:44;5.30;;;4.13;;
6832;SDS011;3454;42.654;23.378;2022-07-29T13:22:22;7.95;;;4.38;;
6832;SDS011;3454;42.654;23.378;2022-07-29T13:24:52;6.60;;;3.88;;
6832;SDS011;3454;42.654;23.378;2022-07-29T13:27:28;4.60;;;4.22;;
6832;SDS011;3454;42.654;23.378;2022-07-29T13:29:55;4.90;;;4.50;;
6832;SDS011;3454;42.654;23.378;2022-07-29T13:32:23;4.03;;;3.72;;
6832;SDS011;3454;42.654;23.378;2022-07-29T13:34:49;8.55;;;4.75;;
6832;SDS011;3454;42.654;23.378;2022-07-29T13:37:14;4.90;;;4.40;;
6832;SDS011;3454;42.654;23.378;2022-07-29T13:39:41;5.85;;;4.38;;
6832;SDS011;3454;42.654;23.378;2022-07-29T13:42:08;4.43;;;4.03;;
6832;SDS011;3454;42.654;23.378;2022-07-29T13:44:33;4.22;;;3.92;;
6832;SDS011;3454;42.654;23.378;2022-07-29T13:47:00;4.90;;;4.50;;
6832;SDS011;3454;42.654;23.378;2022-07-29T13:49:25;6.22;;;4.53;;
6832;SDS011;3454;42.654;23.378;2022-07-29T13:51:52;5.00;;;4.30;;
6832;SDS011;3454;42.654;23.378;2022-07-29T13:54:18;5.60;;;4.18;;
6832;SDS011;3454;42.654;23.378;2022-07-29T13:56:44;5.15;;;4.63;;
6832;SDS011;3454;42.654;23.378;2022-07-29T13:59:10;4.25;;;3.95;;
6832;SDS011;3454;42.654;23.378;2022-07-29T14:01:35;5.65;;;4.30;;
6832;SDS011;3454;42.654;23.378;2022-07-29T14:04:01;5.50;;;4.68;;
6832;SDS011;3454;42.654;23.378;2022-07-29T14:06:27;4.43;;;4.00;;
6832;SDS011;3454;42.654;23.378;2022-07-29T14:08:53;4.97;;;4.40;;
6832;SDS011;3454;42.654;23.378;2022-07-29T14:11:18;5.38;;;4.38;;
6832;SDS011;3454;42.654;23.378;2022-07-29T14:13:44;5.18;;;4.70;;
6832;SDS011;3454;42.654;23.378;2022-07-29T14:16:09;4.82;;;4.32;;
6832;SDS011;3454;42.654;23.378;2022-07-29T14:18:35;4.97;;;4.57;;
6832;SDS011;3454;42.654;23.378;2022-07-29T14:21:00;4.55;;;3.95;;
6832;SDS011;3454;42.654;23.378;2022-07-29T14:23:26;4.35;;;3.60;;
6832;SDS011;3454;42.654;23.378;2022-07-29T14:25:51;5.55;;;4.70;;
6832;SDS011;3454;42.654;23.378;2022-07-29T14:28:17;6.47;;;4.25;;
6832;SDS011;3454;42.654;23.378;2022-07-29T14:30:42;5.05;;;4.38;;
6832;SDS011;3454;42.654;23.378;2022-07-29T14:33:08;5.20;;;4.35;;
6832;SDS011;3454;42.654;23.378;2022-07-29T14:35:33;6.70;;;4.07;;
6832;SDS011;3454;42.654;23.378;2022-07-29T14:37:59;8.38;;;4.13;;
6832;SDS011;3454;42.654;23.378;2022-07-29T14:40:24;5.05;;;4.55;;
6832;SDS011;3454;42.654;23.378;2022-07-29T14:42:50;5.78;;;4.38;;
6832;SDS011;3454;42.654;23.378;2022-07-29T14:45:16;5.07;;;4.57;;
6832;SDS011;3454;42.654;23.378;2022-07-29T14:47:41;4.95;;;4.45;;
6832;SDS011;3454;42.654;23.378;2022-07-29T14:50:07;7.20;;;4.28;;
6832;SDS011;3454;42.654;23.378;2022-07-29T14:52:33;6.45;;;5.00;;
6832;SDS011;3454;42.654;23.378;2022-07-29T14:54:58;6.97;;;4.88;;
6832;SDS011;3454;42.654;23.378;2022-07-29T14:57:24;5.55;;;5.05;;
6832;SDS011;3454;42.654;23.378;2022-07-29T14:59:50;5.53;;;4.63;;
6832;SDS011;3454;42.654;23.378;2022-07-29T15:02:15;6.55;;;5.57;;
6832;SDS011;3454;42.654;23.378;2022-07-29T15:04:41;4.82;;;4.25;;
6832;SDS011;3454;42.654;23.378;2022-07-29T15:07:06;6.70;;;4.70;;
6832;SDS011;3454;42.654;23.378;2022-07-29T15:09:33;5.82;;;4.95;;
6832;SDS011;3454;42.654;23.378;2022-07-29T15:11:58;5.65;;;4.70;;
6832;SDS011;3454;42.654;23.378;2022-07-29T15:14:24;5.10;;;4.63;;
6832;SDS011;3454;42.654;23.378;2022-07-29T15:16:49;5.32;;;4.82;;
6832;SDS011;3454;42.654;23.378;2022-07-29T15:19:14;4.55;;;4.18;;
6832;SDS011;3454;42.654;23.378;2022-07-29T15:21:40;4.93;;;4.53;;
6832;SDS011;3454;42.654;23.378;2022-07-29T15:24:05;4.20;;;3.83;;
6832;SDS011;3454;42.654;23.378;2022-07-29T15:26:32;5.18;;;4.35;;
6832;SDS011;3454;42.654;23.378;2022-07-29T15:28:57;5.20;;;4.32;;
6832;SDS011;3454;42.654;23.378;2022-07-29T15:31:23;3.83;;;3.55;;
6832;SDS011;3454;42.654;23.378;2022-07-29T15:33:48;5.40;;;3.60;;
6832;SDS011;3454;42.654;23.378;2022-07-29T15:36:14;8.40;;;4.15;;
6832;SDS011;3454;42.654;23.378;2022-07-29T15:38:39;4.00;;;3.60;;
6832;SDS011;3454;42.654;23.378;2022-07-29T15:41:05;3.70;;;3.50;;
6832;SDS011;3454;42.654;23.378;2022-07-29T15:43:31;6.63;;;3.72;;
6832;SDS011;3454;42.654;23.378;2022-07-29T15:45:57;5.45;;;3.63;;
6832;SDS011;3454;42.654;23.378;2022-07-29T15:48:41;4.40;;;3.25;;
6832;SDS011;3454;42.654;23.378;2022-07-29T15:51:06;5.65;;;3.47;;
6832;SDS011;3454;42.654;23.378;2022-07-29T15:53:32;4.50;;;4.10;;
6832;SDS011;3454;42.654;23.378;2022-07-29T15:55:57;6.72;;;4.40;;
6832;SDS011;3454;42.654;23.378;2022-07-29T15:58:23;4.00;;;3.67;;
6832;SDS011;3454;42.654;23.378;2022-07-29T16:00:48;6.90;;;4.15;;
6832;SDS011;3454;42.654;23.378;2022-07-29T16:03:14;5.80;;;4.32;;
6832;SDS011;3454;42.654;23.378;2022-07-29T16:05:40;6.10;;;4.60;;
6832;SDS011;3454;42.654;23.378;2022-07-29T16:08:06;4.07;;;3.75;;
6832;SDS011;3454;42.654;23.378;2022-07-29T16:10:31;4.25;;;3.85;;
6832;SDS011;3454;42.654;23.378;2022-07-29T16:12:56;5.00;;;3.85;;
6832;SDS011;3454;42.654;23.378;2022-07-29T16:15:22;4.32;;;4.03;;
6832;SDS011;3454;42.654;23.378;2022-07-29T16:17:47;4.50;;;3.78;;
6832;SDS011;3454;42.654;23.378;2022-07-29T16:20:14;4.40;;;3.92;;
6832;SDS011;3454;42.654;23.378;2022-07-29T16:22:40;5.95;;;3.90;;